Portada
METAR-TAF:

METAR-TAF

Aeropuertos :

Carcasona, Francia

latitud: 43-13N, longitud: 002-19E, altitud: 130 m

Observación

El informe se hizo hace 31 minutos, a las 18:00 UTC
Viento 13 kt del oeste
Temperatura 18°C
Humedad 68%
Presión 1025 hPa
Visibilidad 10 km o más
Cielo cubierto a una altura de 5600 ft

METAR: LFMK 261800Z AUTO 28013KT 9999 OVC056 18/12 Q1025 NOSIG

Hora: 20:31 (18:31 UTC)

Pronóstico

El informe se hizo hace 4 horas y 31 minutos, a las 14:00 UTC
Pronóstico válido del 26 a las 15 UTC al 27 a las 15 UTC
Viento 15 kt del oeste-noroeste
Visibilidad 10 km o más
Cielo nuboso a una altura de 5500 ft

TAF: LFMK 261400Z 2615/2715 30015KT 9999 BKN055

Observaciones y pronósticos meteorológicos de más de 4000 aeropuertos (mensajes METAR y TAF).

Los puntos amarillos y rojos representan las estaciones disponibles.

Ponga el ratón en el punto deseado para ver el nombre de la estación.

Haga clic para ver las observaciones y los pronósticos meteorológicos.

Para cambiar el mapa : haga clic en los botones verdes con una cruz de color negro para hacer un zoom, en el botón verde con un guión para alejar o en las flechas verdes para mapas adyacentes.


METAR-TAF: